sensor_id;sensor_type;location;lat;lon;timestamp;temperature;humidity
57829;DHT22;43657;52.698;6.314;2022-12-29T00:02:11;9.60;99.90
57829;DHT22;43657;52.698;6.314;2022-12-29T00:04:37;9.60;99.90
57829;DHT22;43657;52.698;6.314;2022-12-29T00:07:03;9.60;99.90
57829;DHT22;43657;52.698;6.314;2022-12-29T00:09:32;9.60;99.90
57829;DHT22;43657;52.698;6.314;2022-12-29T00:11:58;9.70;99.90
57829;DHT22;43657;52.698;6.314;2022-12-29T00:14:24;9.70;99.90
57829;DHT22;43657;52.698;6.314;2022-12-29T00:17:15;9.70;99.90
57829;DHT22;43657;52.698;6.314;2022-12-29T00:19:41;9.70;99.90
57829;DHT22;43657;52.698;6.314;2022-12-29T00:22:25;9.70;99.90
57829;DHT22;43657;52.698;6.314;2022-12-29T00:25:11;9.70;99.90
57829;DHT22;43657;52.698;6.314;2022-12-29T00:27:55;9.70;99.90
57829;DHT22;43657;52.698;6.314;2022-12-29T00:30:40;9.70;99.90
57829;DHT22;43657;52.698;6.314;2022-12-29T00:33:32;9.70;99.90
57829;DHT22;43657;52.698;6.314;2022-12-29T00:36:32;9.80;99.90
57829;DHT22;43657;52.698;6.314;2022-12-29T00:39:03;9.70;99.90
57829;DHT22;43657;52.698;6.314;2022-12-29T00:41:48;9.70;99.90
57829;DHT22;43657;52.698;6.314;2022-12-29T00:44:32;9.80;99.90
57829;DHT22;43657;52.698;6.314;2022-12-29T00:46:58;9.80;99.90
57829;DHT22;43657;52.698;6.314;2022-12-29T00:49:28;9.70;99.90
57829;DHT22;43657;52.698;6.314;2022-12-29T00:52:03;9.80;99.90
57829;DHT22;43657;52.698;6.314;2022-12-29T00:54:31;9.80;99.90
57829;DHT22;43657;52.698;6.314;2022-12-29T00:56:57;9.80;99.90
57829;DHT22;43657;52.698;6.314;2022-12-29T00:59:23;9.80;99.90
57829;DHT22;43657;52.698;6.314;2022-12-29T01:01:50;9.80;99.90
57829;DHT22;43657;52.698;6.314;2022-12-29T01:04:16;9.80;99.90
57829;DHT22;43657;52.698;6.314;2022-12-29T01:06:42;9.80;99.90
57829;DHT22;43657;52.698;6.314;2022-12-29T01:09:09;9.80;99.90
57829;DHT22;43657;52.698;6.314;2022-12-29T01:11:54;9.80;99.90
57829;DHT22;43657;52.698;6.314;2022-12-29T01:14:20;9.90;99.90
57829;DHT22;43657;52.698;6.314;2022-12-29T01:16:46;9.90;99.90
57829;DHT22;43657;52.698;6.314;2022-12-29T01:19:13;9.90;99.90
57829;DHT22;43657;52.698;6.314;2022-12-29T01:21:38;9.90;99.90
57829;DHT22;43657;52.698;6.314;2022-12-29T01:24:04;9.90;99.90
57829;DHT22;43657;52.698;6.314;2022-12-29T01:26:30;10.00;99.90
57829;DHT22;43657;52.698;6.314;2022-12-29T01:28:56;10.00;99.90
57829;DHT22;43657;52.698;6.314;2022-12-29T01:31:21;10.00;99.90
57829;DHT22;43657;52.698;6.314;2022-12-29T01:33:47;10.00;99.90
57829;DHT22;43657;52.698;6.314;2022-12-29T01:36:14;10.00;99.90
57829;DHT22;43657;52.698;6.314;2022-12-29T01:38:40;10.00;99.90
57829;DHT22;43657;52.698;6.314;2022-12-29T01:41:07;10.00;99.90
57829;DHT22;43657;52.698;6.314;2022-12-29T01:51:38;10.00;99.90
57829;DHT22;43657;52.698;6.314;2022-12-29T01:54:09;10.00;99.90
57829;DHT22;43657;52.698;6.314;2022-12-29T01:56:36;10.10;99.90
57829;DHT22;43657;52.698;6.314;2022-12-29T01:59:08;10.00;99.90
57829;DHT22;43657;52.698;6.314;2022-12-29T02:01:36;10.10;99.90
57829;DHT22;43657;52.698;6.314;2022-12-29T02:04:02;10.10;99.90
57829;DHT22;43657;52.698;6.314;2022-12-29T02:06:32;10.10;99.90
57829;DHT22;43657;52.698;6.314;2022-12-29T02:09:00;10.10;99.90
57829;DHT22;43657;52.698;6.314;2022-12-29T02:11:26;10.10;99.90
57829;DHT22;43657;52.698;6.314;2022-12-29T02:13:53;10.10;99.90
57829;DHT22;43657;52.698;6.314;2022-12-29T02:19:25;10.10;99.90
57829;DHT22;43657;52.698;6.314;2022-12-29T02:25:14;10.00;99.90
57829;DHT22;43657;52.698;6.314;2022-12-29T02:31:04;9.90;99.90
57829;DHT22;43657;52.698;6.314;2022-12-29T02:33:55;9.90;99.90
57829;DHT22;43657;52.698;6.314;2022-12-29T02:37:00;9.90;99.90
57829;DHT22;43657;52.698;6.314;2022-12-29T02:39:38;9.90;99.90
57829;DHT22;43657;52.698;6.314;2022-12-29T02:45:02;9.90;99.90
57829;DHT22;43657;52.698;6.314;2022-12-29T02:50:48;9.80;99.90
57829;DHT22;43657;52.698;6.314;2022-12-29T02:53:17;9.80;99.90
57829;DHT22;43657;52.698;6.314;2022-12-29T02:56:04;9.80;99.90
57829;DHT22;43657;52.698;6.314;2022-12-29T02:58:30;9.80;99.90
57829;DHT22;43657;52.698;6.314;2022-12-29T03:04:39;9.80;99.90
57829;DHT22;43657;52.698;6.314;2022-12-29T03:16:45;9.70;99.90
57829;DHT22;43657;52.698;6.314;2022-12-29T03:24:10;9.70;99.90
57829;DHT22;43657;52.698;6.314;2022-12-29T03:26:37;9.70;99.90
57829;DHT22;43657;52.698;6.314;2022-12-29T03:29:04;9.70;99.90
57829;DHT22;43657;52.698;6.314;2022-12-29T03:31:31;9.70;99.90
57829;DHT22;43657;52.698;6.314;2022-12-29T03:33:57;9.80;99.90
57829;DHT22;43657;52.698;6.314;2022-12-29T03:36:44;9.80;99.90
57829;DHT22;43657;52.698;6.314;2022-12-29T03:39:13;9.80;99.90
57829;DHT22;43657;52.698;6.314;2022-12-29T03:41:41;9.90;99.90
57829;DHT22;43657;52.698;6.314;2022-12-29T03:44:08;9.90;99.90
57829;DHT22;43657;52.698;6.314;2022-12-29T03:46:34;9.90;99.90
57829;DHT22;43657;52.698;6.314;2022-12-29T03:48:59;9.90;99.90
57829;DHT22;43657;52.698;6.314;2022-12-29T03:51:25;9.90;99.90
57829;DHT22;43657;52.698;6.314;2022-12-29T03:53:51;9.90;99.90
57829;DHT22;43657;52.698;6.314;2022-12-29T03:56:16;9.80;99.90
57829;DHT22;43657;52.698;6.314;2022-12-29T03:58:42;9.80;99.90
57829;DHT22;43657;52.698;6.314;2022-12-29T04:01:07;9.70;99.90
57829;DHT22;43657;52.698;6.314;2022-12-29T04:03:33;9.70;99.90
57829;DHT22;43657;52.698;6.314;2022-12-29T04:05:59;9.60;99.90
57829;DHT22;43657;52.698;6.314;2022-12-29T04:08:24;9.70;99.90
57829;DHT22;43657;52.698;6.314;2022-12-29T04:10:50;9.60;99.90
57829;DHT22;43657;52.698;6.314;2022-12-29T04:13:16;9.50;99.90
57829;DHT22;43657;52.698;6.314;2022-12-29T04:15:43;9.60;99.90
57829;DHT22;43657;52.698;6.314;2022-12-29T04:18:09;9.50;99.90
57829;DHT22;43657;52.698;6.314;2022-12-29T04:20:34;9.50;99.90
57829;DHT22;43657;52.698;6.314;2022-12-29T04:23:18;9.50;99.90
57829;DHT22;43657;52.698;6.314;2022-12-29T04:25:47;9.50;99.90
57829;DHT22;43657;52.698;6.314;2022-12-29T04:28:14;9.40;99.90
57829;DHT22;43657;52.698;6.314;2022-12-29T04:30:40;9.40;99.90
57829;DHT22;43657;52.698;6.314;2022-12-29T04:33:06;9.40;99.90
57829;DHT22;43657;52.698;6.314;2022-12-29T04:35:31;9.40;99.90
57829;DHT22;43657;52.698;6.314;2022-12-29T04:37:57;9.40;99.90
57829;DHT22;43657;52.698;6.314;2022-12-29T04:40:22;9.30;99.90
57829;DHT22;43657;52.698;6.314;2022-12-29T04:42:49;9.40;99.90
57829;DHT22;43657;52.698;6.314;2022-12-29T04:45:15;9.40;99.90
57829;DHT22;43657;52.698;6.314;2022-12-29T04:47:40;9.40;99.90
57829;DHT22;43657;52.698;6.314;2022-12-29T04:50:06;9.40;99.90
57829;DHT22;43657;52.698;6.314;2022-12-29T04:52:32;9.40;99.90
57829;DHT22;43657;52.698;6.314;2022-12-29T04:54:58;9.40;99.90
57829;DHT22;43657;52.698;6.314;2022-12-29T04:57:24;9.30;99.90
57829;DHT22;43657;52.698;6.314;2022-12-29T04:59:49;9.40;99.90
57829;DHT22;43657;52.698;6.314;2022-12-29T05:02:16;9.30;99.90
57829;DHT22;43657;52.698;6.314;2022-12-29T05:04:41;9.40;99.90
57829;DHT22;43657;52.698;6.314;2022-12-29T05:07:07;9.40;99.90
57829;DHT22;43657;52.698;6.314;2022-12-29T05:09:33;9.40;99.90
57829;DHT22;43657;52.698;6.314;2022-12-29T05:11:58;9.40;99.90
57829;DHT22;43657;52.698;6.314;2022-12-29T05:14:24;9.30;99.90
57829;DHT22;43657;52.698;6.314;2022-12-29T05:16:50;9.40;99.90
57829;DHT22;43657;52.698;6.314;2022-12-29T05:19:15;9.40;99.90
57829;DHT22;43657;52.698;6.314;2022-12-29T05:21:42;9.30;99.90
57829;DHT22;43657;52.698;6.314;2022-12-29T05:24:07;9.30;99.90
57829;DHT22;43657;52.698;6.314;2022-12-29T05:26:33;9.30;99.90
57829;DHT22;43657;52.698;6.314;2022-12-29T05:28:59;9.30;99.90
57829;DHT22;43657;52.698;6.314;2022-12-29T05:31:25;9.30;99.90
57829;DHT22;43657;52.698;6.314;2022-12-29T05:33:51;9.40;99.90
57829;DHT22;43657;52.698;6.314;2022-12-29T05:36:17;9.40;99.90
57829;DHT22;43657;52.698;6.314;2022-12-29T05:38:43;9.40;99.90
57829;DHT22;43657;52.698;6.314;2022-12-29T05:41:09;9.40;99.90
57829;DHT22;43657;52.698;6.314;2022-12-29T05:43:34;9.40;99.90
57829;DHT22;43657;52.698;6.314;2022-12-29T05:46:00;9.40;99.90
57829;DHT22;43657;52.698;6.314;2022-12-29T05:48:25;9.40;99.90
57829;DHT22;43657;52.698;6.314;2022-12-29T05:50:51;9.30;99.90
57829;DHT22;43657;52.698;6.314;2022-12-29T05:53:17;9.30;99.90
57829;DHT22;43657;52.698;6.314;2022-12-29T05:55:47;9.20;99.90
57829;DHT22;43657;52.698;6.314;2022-12-29T05:58:13;9.20;99.90
57829;DHT22;43657;52.698;6.314;2022-12-29T06:00:38;9.20;99.90
57829;DHT22;43657;52.698;6.314;2022-12-29T06:03:04;9.20;99.90
57829;DHT22;43657;52.698;6.314;2022-12-29T06:05:30;9.20;99.90
57829;DHT22;43657;52.698;6.314;2022-12-29T06:07:55;9.20;99.90
57829;DHT22;43657;52.698;6.314;2022-12-29T06:10:21;9.10;99.90
57829;DHT22;43657;52.698;6.314;2022-12-29T06:12:46;9.10;99.90
57829;DHT22;43657;52.698;6.314;2022-12-29T06:15:12;9.10;99.90
57829;DHT22;43657;52.698;6.314;2022-12-29T06:17:38;9.10;99.90
57829;DHT22;43657;52.698;6.314;2022-12-29T06:20:05;9.10;99.90
57829;DHT22;43657;52.698;6.314;2022-12-29T06:22:30;9.20;99.90
57829;DHT22;43657;52.698;6.314;2022-12-29T06:24:56;9.30;99.90
57829;DHT22;43657;52.698;6.314;2022-12-29T06:27:22;9.30;99.90
57829;DHT22;43657;52.698;6.314;2022-12-29T06:29:47;9.30;99.90
57829;DHT22;43657;52.698;6.314;2022-12-29T06:32:13;9.30;99.90
57829;DHT22;43657;52.698;6.314;2022-12-29T06:34:39;9.30;99.90
57829;DHT22;43657;52.698;6.314;2022-12-29T06:37:04;9.30;99.90
57829;DHT22;43657;52.698;6.314;2022-12-29T06:39:30;9.30;99.90
57829;DHT22;43657;52.698;6.314;2022-12-29T06:41:55;9.30;99.90
57829;DHT22;43657;52.698;6.314;2022-12-29T06:44:21;9.30;99.90
57829;DHT22;43657;52.698;6.314;2022-12-29T06:46:47;9.30;99.90
57829;DHT22;43657;52.698;6.314;2022-12-29T06:49:13;9.30;99.90
57829;DHT22;43657;52.698;6.314;2022-12-29T06:51:39;9.20;99.90
57829;DHT22;43657;52.698;6.314;2022-12-29T06:54:04;9.20;99.90
57829;DHT22;43657;52.698;6.314;2022-12-29T06:56:30;9.30;99.90
57829;DHT22;43657;52.698;6.314;2022-12-29T06:58:56;9.30;99.90
57829;DHT22;43657;52.698;6.314;2022-12-29T07:01:21;9.30;99.90
57829;DHT22;43657;52.698;6.314;2022-12-29T07:03:47;9.30;99.90
57829;DHT22;43657;52.698;6.314;2022-12-29T07:06:12;9.30;99.90
57829;DHT22;43657;52.698;6.314;2022-12-29T07:08:38;9.30;99.90
57829;DHT22;43657;52.698;6.314;2022-12-29T07:11:05;9.30;99.90
57829;DHT22;43657;52.698;6.314;2022-12-29T07:13:31;9.20;99.90
57829;DHT22;43657;52.698;6.314;2022-12-29T07:15:56;9.20;99.90
57829;DHT22;43657;52.698;6.314;2022-12-29T07:18:22;9.20;99.90
57829;DHT22;43657;52.698;6.314;2022-12-29T07:20:47;9.20;99.90
57829;DHT22;43657;52.698;6.314;2022-12-29T07:23:13;9.20;99.90
57829;DHT22;43657;52.698;6.314;2022-12-29T07:25:39;9.20;99.90
57829;DHT22;43657;52.698;6.314;2022-12-29T07:28:06;9.10;99.90
57829;DHT22;43657;52.698;6.314;2022-12-29T07:30:31;9.10;99.90
57829;DHT22;43657;52.698;6.314;2022-12-29T07:32:57;9.10;99.90
57829;DHT22;43657;52.698;6.314;2022-12-29T07:35:22;9.10;99.90
57829;DHT22;43657;52.698;6.314;2022-12-29T07:37:48;9.10;99.90
57829;DHT22;43657;52.698;6.314;2022-12-29T07:40:14;9.10;99.90
57829;DHT22;43657;52.698;6.314;2022-12-29T07:42:40;9.10;99.90
57829;DHT22;43657;52.698;6.314;2022-12-29T07:45:05;9.20;99.90
57829;DHT22;43657;52.698;6.314;2022-12-29T07:47:31;9.10;99.90
57829;DHT22;43657;52.698;6.314;2022-12-29T07:49:57;9.10;99.90
57829;DHT22;43657;52.698;6.314;2022-12-29T07:52:22;9.10;99.90
57829;DHT22;43657;52.698;6.314;2022-12-29T07:54:48;9.10;99.90
57829;DHT22;43657;52.698;6.314;2022-12-29T07:57:13;9.10;99.90
57829;DHT22;43657;52.698;6.314;2022-12-29T07:59:39;9.10;99.90
57829;DHT22;43657;52.698;6.314;2022-12-29T08:02:05;9.10;99.90
57829;DHT22;43657;52.698;6.314;2022-12-29T08:04:30;9.10;99.90
57829;DHT22;43657;52.698;6.314;2022-12-29T08:06:56;9.10;99.90
57829;DHT22;43657;52.698;6.314;2022-12-29T08:09:21;9.10;99.90
57829;DHT22;43657;52.698;6.314;2022-12-29T08:11:47;9.10;99.90
57829;DHT22;43657;52.698;6.314;2022-12-29T08:14:13;9.10;99.90
57829;DHT22;43657;52.698;6.314;2022-12-29T08:16:38;9.10;99.90
57829;DHT22;43657;52.698;6.314;2022-12-29T08:19:04;9.10;99.90
57829;DHT22;43657;52.698;6.314;2022-12-29T08:21:30;9.10;99.90
57829;DHT22;43657;52.698;6.314;2022-12-29T08:23:56;9.10;99.90
57829;DHT22;43657;52.698;6.314;2022-12-29T08:26:22;9.10;99.90
57829;DHT22;43657;52.698;6.314;2022-12-29T08:28:47;9.10;99.90
57829;DHT22;43657;52.698;6.314;2022-12-29T08:31:13;9.10;99.90
57829;DHT22;43657;52.698;6.314;2022-12-29T08:33:38;9.10;99.90
57829;DHT22;43657;52.698;6.314;2022-12-29T08:36:06;9.20;99.90
57829;DHT22;43657;52.698;6.314;2022-12-29T08:38:32;9.10;99.90
57829;DHT22;43657;52.698;6.314;2022-12-29T08:40:58;9.10;99.90
57829;DHT22;43657;52.698;6.314;2022-12-29T08:43:25;9.10;99.90
57829;DHT22;43657;52.698;6.314;2022-12-29T08:45:50;9.10;99.90
57829;DHT22;43657;52.698;6.314;2022-12-29T08:48:16;9.10;99.90
57829;DHT22;43657;52.698;6.314;2022-12-29T08:50:45;9.20;99.90
57829;DHT22;43657;52.698;6.314;2022-12-29T08:53:11;9.10;99.90
57829;DHT22;43657;52.698;6.314;2022-12-29T08:55:37;9.10;99.90
57829;DHT22;43657;52.698;6.314;2022-12-29T08:58:02;9.20;99.90
57829;DHT22;43657;52.698;6.314;2022-12-29T09:00:28;9.20;99.90
57829;DHT22;43657;52.698;6.314;2022-12-29T09:02:54;9.20;99.90
57829;DHT22;43657;52.698;6.314;2022-12-29T09:05:20;9.20;99.90
57829;DHT22;43657;52.698;6.314;2022-12-29T09:07:45;9.20;99.90
57829;DHT22;43657;52.698;6.314;2022-12-29T09:10:11;9.10;99.90
57829;DHT22;43657;52.698;6.314;2022-12-29T09:12:36;9.00;99.90
57829;DHT22;43657;52.698;6.314;2022-12-29T09:15:03;9.00;99.90
57829;DHT22;43657;52.698;6.314;2022-12-29T09:17:29;9.00;99.90
57829;DHT22;43657;52.698;6.314;2022-12-29T09:20:14;9.00;99.90
57829;DHT22;43657;52.698;6.314;2022-12-29T09:22:40;9.00;99.90
57829;DHT22;43657;52.698;6.314;2022-12-29T09:25:06;9.00;99.90
57829;DHT22;43657;52.698;6.314;2022-12-29T09:27:32;8.90;99.90
57829;DHT22;43657;52.698;6.314;2022-12-29T09:29:57;8.90;99.90
57829;DHT22;43657;52.698;6.314;2022-12-29T09:32:23;8.90;99.90
57829;DHT22;43657;52.698;6.314;2022-12-29T09:34:49;8.90;99.90
57829;DHT22;43657;52.698;6.314;2022-12-29T09:37:14;8.90;99.90
57829;DHT22;43657;52.698;6.314;2022-12-29T09:39:40;8.90;99.90
57829;DHT22;43657;52.698;6.314;2022-12-29T09:42:17;8.90;99.90
57829;DHT22;43657;52.698;6.314;2022-12-29T09:45:06;8.90;99.90
57829;DHT22;43657;52.698;6.314;2022-12-29T09:47:32;8.80;99.90
57829;DHT22;43657;52.698;6.314;2022-12-29T09:55:37;8.90;99.90
57829;DHT22;43657;52.698;6.314;2022-12-29T09:58:05;8.90;99.90
57829;DHT22;43657;52.698;6.314;2022-12-29T10:00:56;8.90;99.90
57829;DHT22;43657;52.698;6.314;2022-12-29T10:03:24;8.90;99.90
57829;DHT22;43657;52.698;6.314;2022-12-29T10:05:59;8.90;99.90
57829;DHT22;43657;52.698;6.314;2022-12-29T10:08:37;8.90;99.90
57829;DHT22;43657;52.698;6.314;2022-12-29T10:13:39;8.90;99.90
57829;DHT22;43657;52.698;6.314;2022-12-29T10:17:03;8.80;99.90
57829;DHT22;43657;52.698;6.314;2022-12-29T10:19:35;8.80;99.90
57829;DHT22;43657;52.698;6.314;2022-12-29T10:23:04;8.80;99.90
57829;DHT22;43657;52.698;6.314;2022-12-29T10:25:37;8.90;99.90
57829;DHT22;43657;52.698;6.314;2022-12-29T10:28:06;8.90;99.90
57829;DHT22;43657;52.698;6.314;2022-12-29T10:30:36;9.00;99.90
57829;DHT22;43657;52.698;6.314;2022-12-29T10:33:05;9.10;99.90
57829;DHT22;43657;52.698;6.314;2022-12-29T10:35:38;9.10;99.90
57829;DHT22;43657;52.698;6.314;2022-12-29T10:38:25;9.10;99.90
57829;DHT22;43657;52.698;6.314;2022-12-29T10:41:05;9.20;99.90
57829;DHT22;43657;52.698;6.314;2022-12-29T10:43:47;9.20;99.90
57829;DHT22;43657;52.698;6.314;2022-12-29T10:46:35;9.30;99.90
57829;DHT22;43657;52.698;6.314;2022-12-29T10:49:02;9.30;99.90
57829;DHT22;43657;52.698;6.314;2022-12-29T10:51:31;9.30;99.90
57829;DHT22;43657;52.698;6.314;2022-12-29T10:54:26;9.30;99.90
57829;DHT22;43657;52.698;6.314;2022-12-29T10:56:54;9.20;99.90
57829;DHT22;43657;52.698;6.314;2022-12-29T10:59:22;9.20;99.90
57829;DHT22;43657;52.698;6.314;2022-12-29T11:02:14;9.20;99.90
57829;DHT22;43657;52.698;6.314;2022-12-29T11:05:06;9.10;99.90
57829;DHT22;43657;52.698;6.314;2022-12-29T11:07:36;9.10;99.90
57829;DHT22;43657;52.698;6.314;2022-12-29T11:12:59;9.10;99.90
57829;DHT22;43657;52.698;6.314;2022-12-29T11:15:25;9.10;99.90
57829;DHT22;43657;52.698;6.314;2022-12-29T11:17:57;9.20;99.90
57829;DHT22;43657;52.698;6.314;2022-12-29T11:22:55;9.10;99.90
57829;DHT22;43657;52.698;6.314;2022-12-29T11:25:20;9.10;99.90
57829;DHT22;43657;52.698;6.314;2022-12-29T11:30:27;9.00;99.90
57829;DHT22;43657;52.698;6.314;2022-12-29T11:32:55;8.90;99.90
57829;DHT22;43657;52.698;6.314;2022-12-29T11:35:42;8.90;99.90
57829;DHT22;43657;52.698;6.314;2022-12-29T11:38:35;9.00;99.90
57829;DHT22;43657;52.698;6.314;2022-12-29T11:41:02;9.00;99.90
57829;DHT22;43657;52.698;6.314;2022-12-29T11:43:37;9.10;99.90
57829;DHT22;43657;52.698;6.314;2022-12-29T11:46:04;9.30;99.90
57829;DHT22;43657;52.698;6.314;2022-12-29T11:48:40;9.40;99.90
57829;DHT22;43657;52.698;6.314;2022-12-29T11:51:08;9.50;99.90
57829;DHT22;43657;52.698;6.314;2022-12-29T11:56:09;9.70;99.90
57829;DHT22;43657;52.698;6.314;2022-12-29T11:58:37;9.80;99.90
57829;DHT22;43657;52.698;6.314;2022-12-29T12:03:35;10.10;99.90
57829;DHT22;43657;52.698;6.314;2022-12-29T12:09:03;9.90;99.90
57829;DHT22;43657;52.698;6.314;2022-12-29T12:11:32;9.70;99.90
57829;DHT22;43657;52.698;6.314;2022-12-29T12:14:07;9.60;99.90
57829;DHT22;43657;52.698;6.314;2022-12-29T12:16:43;9.50;99.90
57829;DHT22;43657;52.698;6.314;2022-12-29T12:19:24;9.20;99.90
57829;DHT22;43657;52.698;6.314;2022-12-29T12:22:03;8.90;99.90
57829;DHT22;43657;52.698;6.314;2022-12-29T12:25:04;8.70;99.90
57829;DHT22;43657;52.698;6.314;2022-12-29T12:30:26;9.20;99.90
57829;DHT22;43657;52.698;6.314;2022-12-29T12:33:15;9.30;99.90
57829;DHT22;43657;52.698;6.314;2022-12-29T12:36:22;9.40;99.90
57829;DHT22;43657;52.698;6.314;2022-12-29T12:39:06;9.30;99.90
57829;DHT22;43657;52.698;6.314;2022-12-29T12:47:49;9.10;99.90
57829;DHT22;43657;52.698;6.314;2022-12-29T12:58:49;9.00;99.90
57829;DHT22;43657;52.698;6.314;2022-12-29T13:01:34;9.00;99.90
57829;DHT22;43657;52.698;6.314;2022-12-29T13:10:19;8.90;99.90
57829;DHT22;43657;52.698;6.314;2022-12-29T13:15:50;9.10;99.90
57829;DHT22;43657;52.698;6.314;2022-12-29T13:21:09;9.10;99.90
57829;DHT22;43657;52.698;6.314;2022-12-29T13:29:17;8.90;99.90
57829;DHT22;43657;52.698;6.314;2022-12-29T13:31:48;9.00;99.90
57829;DHT22;43657;52.698;6.314;2022-12-29T13:34:36;9.00;99.90
57829;DHT22;43657;52.698;6.314;2022-12-29T13:37:13;9.00;99.90
57829;DHT22;43657;52.698;6.314;2022-12-29T13:39:45;8.90;99.90
57829;DHT22;43657;52.698;6.314;2022-12-29T13:42:13;8.80;99.90
57829;DHT22;43657;52.698;6.314;2022-12-29T13:44:43;8.80;99.90
57829;DHT22;43657;52.698;6.314;2022-12-29T13:47:36;8.80;99.90
57829;DHT22;43657;52.698;6.314;2022-12-29T13:50:08;8.70;99.90
57829;DHT22;43657;52.698;6.314;2022-12-29T13:55:48;8.70;99.90
57829;DHT22;43657;52.698;6.314;2022-12-29T14:01:35;8.60;99.90
57829;DHT22;43657;52.698;6.314;2022-12-29T14:04:29;8.50;99.90
57829;DHT22;43657;52.698;6.314;2022-12-29T14:07:12;8.50;99.90
57829;DHT22;43657;52.698;6.314;2022-12-29T14:09:52;8.50;99.90
57829;DHT22;43657;52.698;6.314;2022-12-29T14:12:38;8.50;99.90
57829;DHT22;43657;52.698;6.314;2022-12-29T14:17:37;8.60;99.90
57829;DHT22;43657;52.698;6.314;2022-12-29T14:20:06;8.50;99.90
57829;DHT22;43657;52.698;6.314;2022-12-29T14:25:55;8.60;99.90
57829;DHT22;43657;52.698;6.314;2022-12-29T14:28:27;8.60;99.90
57829;DHT22;43657;52.698;6.314;2022-12-29T14:30:55;8.60;99.90
57829;DHT22;43657;52.698;6.314;2022-12-29T14:33:22;8.60;99.90
57829;DHT22;43657;52.698;6.314;2022-12-29T14:35:48;8.50;99.90
57829;DHT22;43657;52.698;6.314;2022-12-29T14:38:28;8.50;99.90
57829;DHT22;43657;52.698;6.314;2022-12-29T14:41:16;8.50;99.90
57829;DHT22;43657;52.698;6.314;2022-12-29T14:43:55;8.50;99.90
57829;DHT22;43657;52.698;6.314;2022-12-29T14:46:22;8.50;99.90
57829;DHT22;43657;52.698;6.314;2022-12-29T14:48:57;8.50;99.90
57829;DHT22;43657;52.698;6.314;2022-12-29T14:51:32;8.40;99.90
57829;DHT22;43657;52.698;6.314;2022-12-29T14:54:00;8.40;99.90
57829;DHT22;43657;52.698;6.314;2022-12-29T14:56:29;8.30;99.90
57829;DHT22;43657;52.698;6.314;2022-12-29T14:59:00;8.30;99.90
57829;DHT22;43657;52.698;6.314;2022-12-29T15:01:48;8.30;99.90
57829;DHT22;43657;52.698;6.314;2022-12-29T15:04:18;8.20;99.90
57829;DHT22;43657;52.698;6.314;2022-12-29T15:06:45;8.20;99.90
57829;DHT22;43657;52.698;6.314;2022-12-29T15:09:34;8.10;99.90
57829;DHT22;43657;52.698;6.314;2022-12-29T15:14:36;8.10;99.90
57829;DHT22;43657;52.698;6.314;2022-12-29T15:17:31;8.10;99.90
57829;DHT22;43657;52.698;6.314;2022-12-29T15:19:57;8.00;99.90
57829;DHT22;43657;52.698;6.314;2022-12-29T15:22:23;7.90;99.90
57829;DHT22;43657;52.698;6.314;2022-12-29T15:24:53;7.90;99.90
57829;DHT22;43657;52.698;6.314;2022-12-29T15:27:23;7.90;99.90
57829;DHT22;43657;52.698;6.314;2022-12-29T15:29:58;7.90;99.90
57829;DHT22;43657;52.698;6.314;2022-12-29T15:32:26;7.80;99.90
57829;DHT22;43657;52.698;6.314;2022-12-29T15:34:54;7.80;99.90
57829;DHT22;43657;52.698;6.314;2022-12-29T15:37:23;7.70;99.90
57829;DHT22;43657;52.698;6.314;2022-12-29T15:39:49;7.70;99.90
57829;DHT22;43657;52.698;6.314;2022-12-29T15:45:15;7.80;99.90
57829;DHT22;43657;52.698;6.314;2022-12-29T15:47:43;7.80;99.90
57829;DHT22;43657;52.698;6.314;2022-12-29T15:50:28;7.80;99.90
57829;DHT22;43657;52.698;6.314;2022-12-29T15:52:55;7.80;99.90
57829;DHT22;43657;52.698;6.314;2022-12-29T15:55:34;7.80;99.90
57829;DHT22;43657;52.698;6.314;2022-12-29T15:58:03;7.80;99.90
57829;DHT22;43657;52.698;6.314;2022-12-29T16:00:34;7.70;99.90
57829;DHT22;43657;52.698;6.314;2022-12-29T16:03:01;7.70;99.90
57829;DHT22;43657;52.698;6.314;2022-12-29T16:05:35;7.70;99.90
57829;DHT22;43657;52.698;6.314;2022-12-29T16:08:03;7.60;99.90
57829;DHT22;43657;52.698;6.314;2022-12-29T16:10:42;7.60;99.90
57829;DHT22;43657;52.698;6.314;2022-12-29T16:15:47;7.60;99.90
57829;DHT22;43657;52.698;6.314;2022-12-29T16:18:34;7.60;99.90
57829;DHT22;43657;52.698;6.314;2022-12-29T16:21:00;7.50;99.90
57829;DHT22;43657;52.698;6.314;2022-12-29T16:23:28;7.50;99.90
57829;DHT22;43657;52.698;6.314;2022-12-29T16:25:56;7.50;99.90
57829;DHT22;43657;52.698;6.314;2022-12-29T16:28:25;7.50;99.90
57829;DHT22;43657;52.698;6.314;2022-12-29T16:31:04;7.50;99.90
57829;DHT22;43657;52.698;6.314;2022-12-29T16:33:44;7.50;99.90
57829;DHT22;43657;52.698;6.314;2022-12-29T16:36:31;7.50;99.90
57829;DHT22;43657;52.698;6.314;2022-12-29T16:39:20;7.60;99.90
57829;DHT22;43657;52.698;6.314;2022-12-29T16:41:50;7.50;99.90
57829;DHT22;43657;52.698;6.314;2022-12-29T16:44:26;7.60;99.90
57829;DHT22;43657;52.698;6.314;2022-12-29T16:49:37;7.70;99.90
57829;DHT22;43657;52.698;6.314;2022-12-29T16:52:29;7.70;99.90
57829;DHT22;43657;52.698;6.314;2022-12-29T16:54:59;7.70;99.90
57829;DHT22;43657;52.698;6.314;2022-12-29T16:57:31;7.80;99.90
57829;DHT22;43657;52.698;6.314;2022-12-29T17:00:18;7.80;99.90
57829;DHT22;43657;52.698;6.314;2022-12-29T17:02:44;7.80;99.90
57829;DHT22;43657;52.698;6.314;2022-12-29T17:05:15;7.80;99.90
57829;DHT22;43657;52.698;6.314;2022-12-29T17:07:41;7.80;99.90
57829;DHT22;43657;52.698;6.314;2022-12-29T17:10:08;7.90;99.90
57829;DHT22;43657;52.698;6.314;2022-12-29T17:12:34;7.90;99.90
57829;DHT22;43657;52.698;6.314;2022-12-29T17:17:39;7.80;99.90
57829;DHT22;43657;52.698;6.314;2022-12-29T17:20:27;7.80;99.90
57829;DHT22;43657;52.698;6.314;2022-12-29T17:26:55;7.70;99.90
57829;DHT22;43657;52.698;6.314;2022-12-29T17:31:55;7.70;99.90
57829;DHT22;43657;52.698;6.314;2022-12-29T17:34:20;7.70;99.90
57829;DHT22;43657;52.698;6.314;2022-12-29T17:36:47;7.70;99.90
57829;DHT22;43657;52.698;6.314;2022-12-29T17:39:13;7.60;99.90
57829;DHT22;43657;52.698;6.314;2022-12-29T17:41:38;7.60;99.90
57829;DHT22;43657;52.698;6.314;2022-12-29T17:44:05;7.60;99.90
57829;DHT22;43657;52.698;6.314;2022-12-29T17:46:31;7.60;99.90
57829;DHT22;43657;52.698;6.314;2022-12-29T17:48:57;7.50;99.90
57829;DHT22;43657;52.698;6.314;2022-12-29T17:51:23;7.50;99.90
57829;DHT22;43657;52.698;6.314;2022-12-29T17:53:49;7.50;99.90
57829;DHT22;43657;52.698;6.314;2022-12-29T17:56:16;7.50;99.90
57829;DHT22;43657;52.698;6.314;2022-12-29T17:58:42;7.60;99.90
57829;DHT22;43657;52.698;6.314;2022-12-29T18:01:09;7.60;99.90
57829;DHT22;43657;52.698;6.314;2022-12-29T18:03:37;7.60;99.90
57829;DHT22;43657;52.698;6.314;2022-12-29T18:06:04;7.70;99.90
57829;DHT22;43657;52.698;6.314;2022-12-29T18:08:34;7.70;99.90
57829;DHT22;43657;52.698;6.314;2022-12-29T18:10:59;7.70;99.90
57829;DHT22;43657;52.698;6.314;2022-12-29T18:13:27;7.70;99.90
57829;DHT22;43657;52.698;6.314;2022-12-29T18:15:54;7.80;99.90
57829;DHT22;43657;52.698;6.314;2022-12-29T18:18:22;7.80;99.90
57829;DHT22;43657;52.698;6.314;2022-12-29T18:20:50;7.80;99.90